Time;durP1;ratioP1;P1;durP2;ratioP2;P2;SDS_P1;SDS_P2;PMS_P1;PMS_P2;Temp;Humidity;BMP_temperature;BMP_pressure;BME280_temperature;BME280_humidity;BME280_pressure;Samples;Min_cycle;Max_cycle;Signal;HPM_P1;HPM_P2
2021/07/12 00:01:12;;;;;;;4.45;2.88;;;14.40;99.90;;;;;;4990751;28;20063;-84
2021/07/12 00:03:42;;;;;;;3.17;3.03;;;14.40;99.90;;;;;;4991029;28;20055;-84
2021/07/12 00:06:19;;;;;;;2.67;2.53;;;14.40;99.90;;;;;;4989962;28;20394;-85
2021/07/12 00:08:46;;;;;;;3.72;2.80;;;14.40;99.90;;;;;;4989361;28;20509;-86
2021/07/12 00:11:14;;;;;;;3.00;2.80;;;14.40;99.90;;;;;;4989487;28;20085;-85
2021/07/12 00:13:41;;;;;;;4.65;2.80;;;14.30;99.90;;;;;;4988589;28;20046;-86
2021/07/12 00:16:08;;;;;;;3.40;3.03;;;14.20;99.90;;;;;;4989800;28;20500;-84
2021/07/12 00:18:35;;;;;;;2.50;2.40;;;14.10;99.90;;;;;;4988886;28;20039;-85
2021/07/12 00:21:02;;;;;;;2.90;2.80;;;14.10;99.90;;;;;;4991036;28;20101;-85
2021/07/12 00:23:29;;;;;;;4.35;2.88;;;14.00;99.90;;;;;;4989518;28;20137;-85
2021/07/12 00:25:55;;;;;;;4.93;2.65;;;14.00;99.90;;;;;;4989951;28;20050;-86
2021/07/12 00:28:22;;;;;;;4.20;3.00;;;14.00;99.90;;;;;;4988040;28;20116;-85
2021/07/12 00:30:49;;;;;;;2.88;2.70;;;13.80;99.90;;;;;;4989419;28;20054;-85
2021/07/12 00:33:40;;;;;;;3.55;3.15;;;13.80;99.90;;;;;;4991551;28;20054;-86
2021/07/12 00:36:08;;;;;;;3.95;3.30;;;13.80;99.90;;;;;;4967019;28;20063;-85
2021/07/12 00:38:36;;;;;;;3.50;2.90;;;13.70;99.90;;;;;;4987949;28;20119;-85
2021/07/12 00:41:04;;;;;;;2.63;2.53;;;13.70;99.90;;;;;;4988782;28;20063;-85
2021/07/12 00:43:32;;;;;;;3.38;3.13;;;13.60;99.90;;;;;;4987803;28;20115;-85
2021/07/12 00:45:59;;;;;;;6.03;3.83;;;13.60;99.90;;;;;;4989280;28;20078;-85
2021/07/12 00:48:26;;;;;;;3.78;3.42;;;13.50;99.90;;;;;;4989004;28;20069;-86
2021/07/12 00:50:53;;;;;;;3.60;3.30;;;13.40;99.90;;;;;;4988826;28;20473;-87
2021/07/12 00:53:20;;;;;;;6.45;3.53;;;13.40;99.90;;;;;;4989971;28;20497;-85
2021/07/12 00:55:50;;;;;;;5.10;3.65;;;13.30;99.90;;;;;;4988797;28;20107;-86
2021/07/12 00:58:25;;;;;;;6.40;3.42;;;13.20;99.90;;;;;;4986658;28;20070;-86
2021/07/12 01:00:57;;;;;;;3.60;3.50;;;13.30;99.90;;;;;;4982086;28;20151;-86
2021/07/12 01:03:25;;;;;;;4.55;3.40;;;13.30;99.90;;;;;;4978068;28;20047;-85
2021/07/12 01:05:53;;;;;;;4.00;3.60;;;13.30;99.90;;;;;;4977218;28;20078;-86
2021/07/12 01:08:20;;;;;;;7.20;3.80;;;13.30;99.90;;;;;;4976719;28;20074;-85
2021/07/12 01:11:14;;;;;;;3.70;3.40;;;13.30;99.90;;;;;;4978897;28;20137;-85
2021/07/12 01:13:54;;;;;;;3.47;3.17;;;13.30;99.90;;;;;;4975343;28;20854;-85
2021/07/12 01:16:27;;;;;;;4.03;3.50;;;13.30;99.90;;;;;;4977364;28;20054;-85
2021/07/12 01:19:31;;;;;;;3.22;2.80;;;13.10;99.90;;;;;;4983856;28;20485;-85
2021/07/12 01:22:30;;;;;;;5.40;3.42;;;13.00;99.90;;;;;;4978748;28;20053;-85
2021/07/12 01:25:25;;;;;;;3.38;3.08;;;13.00;99.90;;;;;;4993347;28;20066;-85
2021/07/12 01:28:27;;;;;;;5.32;3.50;;;12.90;99.90;;;;;;4993934;28;20046;-85
2021/07/12 01:31:29;;;;;;;3.65;3.05;;;12.80;99.90;;;;;;4995334;28;20054;-86
2021/07/12 01:34:17;;;;;;;3.22;3.03;;;12.70;99.90;;;;;;4994661;28;20476;-85
2021/07/12 01:36:47;;;;;;;3.70;3.50;;;12.70;99.90;;;;;;4992194;28;20046;-85
2021/07/12 01:39:21;;;;;;;3.63;3.42;;;12.70;99.90;;;;;;4987706;28;20050;-85
2021/07/12 01:42:01;;;;;;;4.10;3.65;;;12.60;99.90;;;;;;4988517;28;20070;-85
2021/07/12 01:44:50;;;;;;;4.32;3.83;;;12.60;99.90;;;;;;4987290;28;20117;-85
2021/07/12 01:47:29;;;;;;;7.18;4.72;;;12.60;99.90;;;;;;4986896;28;20532;-85
2021/07/12 01:50:04;;;;;;;4.00;3.67;;;12.40;99.90;;;;;;4986537;28;20101;-85
2021/07/12 01:52:41;;;;;;;4.57;4.18;;;12.40;99.90;;;;;;4987844;28;20050;-84
2021/07/12 01:55:26;;;;;;;6.05;4.30;;;12.40;99.90;;;;;;4985040;28;20050;-84
2021/07/12 01:58:07;;;;;;;10.63;4.40;;;12.40;99.90;;;;;;4987345;28;20094;-86
2021/07/12 02:00:35;;;;;;;4.57;4.15;;;12.40;99.90;;;;;;4987754;28;20074;-85
2021/07/12 02:03:03;;;;;;;7.65;4.50;;;12.40;99.90;;;;;;4986681;28;20105;-85
2021/07/12 02:05:32;;;;;;;5.63;4.63;;;12.40;99.90;;;;;;4986103;28;20054;-85
2021/07/12 02:08:01;;;;;;;7.95;5.38;;;12.30;99.90;;;;;;4987460;28;20051;-85
2021/07/12 02:10:30;;;;;;;5.47;4.97;;;12.30;99.90;;;;;;4985485;28;20074;-84
2021/07/12 02:12:59;;;;;;;7.95;6.07;;;12.30;99.90;;;;;;4987567;28;20074;-85
2021/07/12 02:15:26;;;;;;;5.25;4.68;;;12.20;99.90;;;;;;4985147;28;20055;-85
2021/07/12 02:17:55;;;;;;;10.13;5.57;;;12.10;99.90;;;;;;4986466;28;20393;-84
2021/07/12 02:20:25;;;;;;;6.13;5.50;;;12.20;99.90;;;;;;4985108;28;20078;-85
2021/07/12 02:22:54;;;;;;;7.53;6.28;;;12.00;99.90;;;;;;4977397;28;20464;-84
2021/07/12 02:25:21;;;;;;;6.43;5.75;;;12.00;99.90;;;;;;4977665;28;20137;-85
2021/07/12 02:27:49;;;;;;;6.30;5.70;;;12.10;99.90;;;;;;4976683;28;20051;-84
2021/07/12 02:30:17;;;;;;;6.60;5.55;;;12.10;99.90;;;;;;4975754;28;20085;-85
2021/07/12 02:32:45;;;;;;;8.27;4.88;;;12.10;99.90;;;;;;4975365;28;20129;-84
2021/07/12 02:35:14;;;;;;;6.28;5.72;;;12.10;99.90;;;;;;4975550;28;20130;-85
2021/07/12 02:37:44;;;;;;;5.60;5.20;;;12.20;99.90;;;;;;4977275;28;20082;-85
2021/07/12 02:40:13;;;;;;;5.85;5.35;;;12.20;99.90;;;;;;4983442;28;20045;-85
2021/07/12 02:42:43;;;;;;;7.03;5.13;;;12.20;99.90;;;;;;4987612;28;20050;-85
2021/07/12 02:45:10;;;;;;;9.80;5.38;;;12.20;99.90;;;;;;4988675;28;20057;-85
2021/07/12 02:47:39;;;;;;;5.35;4.82;;;12.10;99.90;;;;;;4987687;28;20061;-85
2021/07/12 02:50:08;;;;;;;5.40;4.93;;;12.20;99.90;;;;;;4990243;28;20075;-85
2021/07/12 02:52:46;;;;;;;5.00;4.50;;;12.20;99.90;;;;;;4987377;28;20074;-85
2021/07/12 02:55:14;;;;;;;7.72;5.80;;;12.10;99.90;;;;;;4988590;28;20035;-84
2021/07/12 02:57:41;;;;;;;9.90;6.82;;;12.10;99.90;;;;;;4985722;28;20082;-85
2021/07/12 03:00:10;;;;;;;6.63;5.85;;;12.10;99.90;;;;;;4988955;28;20477;-85
2021/07/12 03:02:37;;;;;;;6.35;5.78;;;12.10;99.90;;;;;;4985355;28;20062;-85
2021/07/12 03:05:06;;;;;;;11.00;6.40;;;12.10;99.90;;;;;;4987837;28;20055;-85
2021/07/12 03:07:37;;;;;;;6.57;5.97;;;12.20;99.90;;;;;;4989362;28;20098;-85
2021/07/12 03:10:12;;;;;;;6.75;6.10;;;12.30;99.90;;;;;;4990307;28;20488;-85
2021/07/12 03:12:53;;;;;;;6.68;5.90;;;12.30;99.90;;;;;;4993243;28;20425;-85
2021/07/12 03:15:30;;;;;;;5.82;5.20;;;12.20;99.90;;;;;;4988716;28;20082;-85
2021/07/12 03:17:59;;;;;;;6.25;5.70;;;12.30;99.90;;;;;;4987741;28;20566;-85
2021/07/12 03:20:29;;;;;;;7.00;5.20;;;12.20;99.90;;;;;;4988894;28;20430;-85
2021/07/12 03:22:57;;;;;;;5.65;5.13;;;12.10;99.90;;;;;;4989933;28;20046;-85
2021/07/12 03:25:29;;;;;;;6.47;5.38;;;12.10;99.90;;;;;;4989990;28;20062;-85
2021/07/12 03:27:58;;;;;;;6.65;6.05;;;12.20;99.90;;;;;;4988844;28;20573;-85
2021/07/12 03:30:30;;;;;;;5.32;4.93;;;12.20;99.90;;;;;;4989263;28;20074;-85
2021/07/12 03:32:58;;;;;;;7.63;5.32;;;12.20;99.90;;;;;;4992539;28;20081;-83
2021/07/12 03:35:41;;;;;;;8.13;5.65;;;12.20;99.90;;;;;;4990977;28;20050;-83
2021/07/12 03:38:08;;;;;;;5.15;4.85;;;12.20;99.90;;;;;;4989636;28;20058;-86
2021/07/12 03:40:35;;;;;;;5.90;5.28;;;12.30;99.90;;;;;;4987515;28;20142;-85
2021/07/12 03:43:02;;;;;;;5.75;5.20;;;12.30;99.90;;;;;;4988092;28;20046;-85
2021/07/12 03:45:29;;;;;;;5.95;5.20;;;12.30;99.90;;;;;;4988111;28;20527;-86
2021/07/12 03:47:56;;;;;;;6.40;5.80;;;12.40;99.90;;;;;;4991160;28;20090;-85
2021/07/12 03:50:25;;;;;;;6.10;5.35;;;12.30;99.90;;;;;;4991439;28;20087;-85
2021/07/12 03:52:52;;;;;;;7.07;6.55;;;12.50;99.90;;;;;;4992324;28;20505;-85
2021/07/12 03:55:21;;;;;;;7.40;6.70;;;12.60;99.90;;;;;;4993016;28;20074;-86
2021/07/12 04:05:28;;;;;;;9.45;6.75;;;12.70;99.90;;;;;;4992183;23;20101;-93
2021/07/12 04:07:56;;;;;;;6.50;5.85;;;12.70;99.90;;;;;;4995695;28;20137;-93
2021/07/12 04:10:23;;;;;;;6.40;5.85;;;12.70;99.90;;;;;;4996175;28;20074;-94
2021/07/12 04:12:50;;;;;;;6.78;6.18;;;12.80;99.90;;;;;;4995640;28;20061;-92
2021/07/12 04:15:17;;;;;;;6.45;4.57;;;12.80;99.90;;;;;;4995663;28;20558;-93
2021/07/12 04:17:44;;;;;;;7.63;5.43;;;12.90;99.90;;;;;;4995029;28;20454;-92
2021/07/12 04:20:12;;;;;;;6.55;5.95;;;13.00;99.90;;;;;;4995873;28;20090;-92
2021/07/12 04:22:39;;;;;;;5.60;5.07;;;13.10;99.90;;;;;;4995836;28;20070;-92
2021/07/12 04:25:08;;;;;;;5.28;4.88;;;13.20;99.90;;;;;;4995923;28;20059;-92
2021/07/12 04:27:35;;;;;;;5.47;5.05;;;13.30;99.90;;;;;;4995708;28;20057;-92
2021/07/12 04:30:04;;;;;;;5.63;5.00;;;13.40;99.90;;;;;;4995625;28;20137;-93
2021/07/12 04:32:31;;;;;;;7.47;6.88;;;13.40;99.90;;;;;;4995627;28;20471;-93
2021/07/12 04:34:58;;;;;;;6.90;5.57;;;13.50;99.90;;;;;;4995631;28;20076;-92
2021/07/12 04:37:25;;;;;;;9.00;6.95;;;13.50;99.90;;;;;;4995717;28;20142;-94
2021/07/12 04:39:51;;;;;;;7.20;6.65;;;13.60;99.90;;;;;;4995381;28;20141;-94
2021/07/12 04:42:18;;;;;;;9.48;7.75;;;13.70;99.90;;;;;;4995616;28;20054;-93
2021/07/12 04:44:45;;;;;;;9.40;7.68;;;13.70;99.90;;;;;;4995461;28;20145;-94
2021/07/12 04:47:12;;;;;;;9.18;6.32;;;13.70;99.90;;;;;;4995893;28;20137;-94
2021/07/12 04:49:39;;;;;;;5.72;5.35;;;13.80;99.90;;;;;;4996773;28;20058;-94
2021/07/12 04:52:06;;;;;;;5.43;4.93;;;13.80;99.90;;;;;;4998084;28;20085;-91
2021/07/12 04:54:33;;;;;;;6.43;5.82;;;13.80;99.90;;;;;;4997266;28;20097;-94
2021/07/12 04:57:00;;;;;;;6.15;5.53;;;13.90;99.90;;;;;;4997261;28;20137;-94
2021/07/12 04:59:28;;;;;;;6.25;5.20;;;13.80;99.90;;;;;;4998865;28;20112;-94
2021/07/12 05:01:56;;;;;;;4.55;4.15;;;13.80;99.90;;;;;;5011543;28;20046;-94
2021/07/12 05:04:23;;;;;;;4.97;4.47;;;13.80;99.90;;;;;;5002441;28;20054;-94
2021/07/12 05:06:49;;;;;;;5.68;5.15;;;13.90;99.90;;;;;;4994629;28;20070;-94
2021/07/12 05:09:16;;;;;;;5.03;4.25;;;13.90;99.90;;;;;;4994592;28;20482;-94
2021/07/12 05:11:43;;;;;;;4.20;3.80;;;14.00;99.90;;;;;;4994930;28;20073;-94
2021/07/12 05:14:10;;;;;;;4.57;4.28;;;14.10;99.90;;;;;;4995515;28;20042;-94
2021/07/12 05:16:39;;;;;;;7.55;6.15;;;14.30;99.90;;;;;;4995327;28;20073;-93
2021/07/12 05:19:07;;;;;;;6.45;5.85;;;14.40;99.90;;;;;;4995109;28;20085;-94
2021/07/12 05:21:34;;;;;;;7.93;7.18;;;14.80;99.90;;;;;;4994725;28;20149;-94
2021/07/12 05:24:01;;;;;;;6.65;6.13;;;15.30;99.90;;;;;;4994677;28;20058;-93
2021/07/12 05:26:28;;;;;;;9.45;3.47;;;16.30;99.90;;;;;;4994662;28;20442;-93
2021/07/12 05:28:54;;;;;;;2.75;2.20;;;17.50;99.90;;;;;;4995515;28;20598;-95
2021/07/12 05:31:21;;;;;;;1.50;1.40;;;18.80;99.90;;;;;;4995542;28;20054;-94
2021/07/12 05:33:49;;;;;;;1.48;1.45;;;19.90;99.90;;;;;;4995316;28;20046;-94
2021/07/12 05:36:16;;;;;;;1.70;1.00;;;21.30;99.90;;;;;;4994432;28;20081;-94
2021/07/12 05:38:43;;;;;;;1.45;1.10;;;22.10;99.90;;;;;;4995247;28;20101;-95
2021/07/12 05:41:10;;;;;;;1.50;1.10;;;22.70;99.90;;;;;;4996019;28;20116;-95
2021/07/12 05:43:37;;;;;;;1.38;1.00;;;23.00;99.90;;;;;;4998063;28;20050;-95
2021/07/12 05:46:05;;;;;;;1.30;1.20;;;23.60;99.90;;;;;;4999140;28;20077;-93
2021/07/12 05:48:32;;;;;;;9.93;1.95;;;24.00;99.90;;;;;;4995686;28;20050;-94
2021/07/12 05:50:59;;;;;;;4.70;1.52;;;24.20;99.90;;;;;;4994924;28;20069;-94
2021/07/12 05:53:26;;;;;;;6.55;1.50;;;24.60;99.90;;;;;;4994593;28;20077;-94
2021/07/12 05:55:53;;;;;;;3.70;1.15;;;25.10;99.90;;;;;;4994129;28;20137;-94
2021/07/12 05:58:20;;;;;;;5.07;1.50;;;25.10;99.90;;;;;;4992213;28;20125;-93
2021/07/12 06:00:46;;;;;;;7.43;1.70;;;25.10;99.90;;;;;;5010313;28;20137;-94
2021/07/12 06:03:13;;;;;;;4.72;1.35;;;25.60;99.90;;;;;;5009581;28;20133;-94
2021/07/12 06:05:40;;;;;;;3.08;1.10;;;26.20;99.90;;;;;;5010165;28;20046;-94
2021/07/12 06:08:07;;;;;;;8.20;1.60;;;26.00;99.90;;;;;;5010426;28;20085;-94
2021/07/12 06:10:35;;;;;;;5.82;1.48;;;26.50;99.90;;;;;;4995718;28;20081;-93
2021/07/12 06:13:04;;;;;;;6.13;1.50;;;27.70;99.90;;;;;;5000213;28;20061;-96
2021/07/12 06:15:32;;;;;;;3.20;1.50;;;27.70;99.90;;;;;;5004760;28;20065;-96
2021/07/12 06:18:17;;;;;;;3.88;1.50;;;28.80;99.90;;;;;;5002466;28;20054;-95
2021/07/12 06:20:44;;;;;;;3.03;1.52;;;28.50;99.90;;;;;;5008959;28;20050;-95
2021/07/12 06:23:11;;;;;;;7.82;1.70;;;28.30;99.50;;;;;;5015264;28;20046;-96
2021/07/12 06:25:38;;;;;;;8.45;1.50;;;28.30;99.80;;;;;;5005523;28;20054;-95
2021/07/12 06:28:08;;;;;;;5.88;1.90;;;28.30;99.90;;;;;;5004934;28;20026;-95
2021/07/12 06:30:44;;;;;;;6.00;1.50;;;28.80;99.60;;;;;;5001993;28;20050;-95
2021/07/12 06:33:13;;;;;;;1.98;1.35;;;28.90;99.00;;;;;;5000592;28;20050;-96
2021/07/12 06:35:40;;;;;;;6.75;1.23;;;28.70;98.50;;;;;;5002273;28;20054;-95
2021/07/12 06:38:07;;;;;;;5.13;1.33;;;29.50;96.70;;;;;;4994122;28;20069;-94
2021/07/12 06:40:33;;;;;;;6.75;1.13;;;30.00;95.30;;;;;;4995737;28;20507;-93
2021/07/12 06:43:01;;;;;;;3.15;1.50;;;30.40;95.00;;;;;;5008724;28;20045;-96
2021/07/12 06:45:32;;;;;;;2.55;1.20;;;30.80;92.40;;;;;;5017422;28;20034;-96
2021/07/12 06:48:00;;;;;;;4.97;1.67;;;30.20;91.80;;;;;;4998837;23;20069;-87
2021/07/12 06:50:26;;;;;;;2.25;1.27;;;30.20;93.50;;;;;;4979559;28;20082;-87
2021/07/12 06:52:53;;;;;;;3.08;1.40;;;31.10;91.00;;;;;;4979281;28;20101;-88
2021/07/12 06:55:21;;;;;;;5.93;1.55;;;32.70;87.90;;;;;;4979354;28;20142;-86
2021/07/12 06:57:48;;;;;;;2.95;1.02;;;32.10;87.10;;;;;;4980369;28;20082;-86
2021/07/12 07:00:15;;;;;;;2.30;1.00;;;32.20;87.00;;;;;;4979314;28;20388;-86
2021/07/12 07:02:42;;;;;;;2.25;1.40;;;32.90;81.50;;;;;;4979523;28;20042;-86
2021/07/12 07:05:09;;;;;;;2.78;1.10;;;33.20;79.10;;;;;;4979890;28;20059;-86
2021/07/12 07:07:36;;;;;;;1.30;1.13;;;33.30;76.30;;;;;;4979363;28;20085;-88
2021/07/12 07:10:05;;;;;;;1.40;1.10;;;34.00;74.70;;;;;;4979446;28;20463;-86
2021/07/12 07:12:32;;;;;;;1.63;0.90;;;34.00;72.80;;;;;;4979174;28;20077;-86
2021/07/12 07:45:27;;;;;;;2.80;0.98;;;32.70;61.70;;;;;;5086285;23;20050;-95
2021/07/12 07:51:29;;;;;;;1.55;0.98;;;28.80;80.20;;;;;;5165879;23;20052;31
2021/07/12 08:00:57;;;;;;;2.25;1.05;;;25.80;99.90;;;;;;5208608;23;20054;-95
2021/07/12 08:03:27;;;;;;;0.75;0.75;;;27.50;99.90;;;;;;4999756;28;20050;-94
2021/07/12 08:05:59;;;;;;;3.53;0.70;;;29.50;99.90;;;;;;5016946;28;20090;-94
2021/07/12 08:13:44;;;;;;;1.00;0.88;;;33.50;75.50;;;;;;5016150;23;20518;-94
2021/07/12 08:16:15;;;;;;;1.63;0.82;;;34.80;71.00;;;;;;5005108;28;20085;-95
2021/07/12 08:18:51;;;;;;;0.55;0.43;;;36.30;66.20;;;;;;5007782;28;20058;-94
2021/07/12 08:21:22;;;;;;;0.90;0.75;;;37.70;57.80;;;;;;5007583;28;20054;-94
2021/07/12 08:23:50;;;;;;;1.75;0.65;;;38.40;56.80;;;;;;5007939;28;20055;-93
2021/07/12 08:26:17;;;;;;;2.05;0.70;;;39.80;52.20;;;;;;5004814;28;20079;-93
2021/07/12 08:28:44;;;;;;;0.55;0.55;;;40.10;51.90;;;;;;5002881;28;20081;-95
2021/07/12 08:31:18;;;;;;;1.13;0.50;;;39.60;51.70;;;;;;5002595;28;20141;-94
2021/07/12 08:34:09;;;;;;;2.70;0.50;;;40.10;48.20;;;;;;5004164;28;20061;-95
2021/07/12 08:36:36;;;;;;;5.40;4.90;;;41.00;49.50;;;;;;4997788;28;20046;-91
2021/07/12 08:39:05;;;;;;;2.03;1.65;;;41.00;48.30;;;;;;5003605;28;20084;-95
2021/07/12 08:41:34;;;;;;;4.13;3.83;;;41.50;49.00;;;;;;5004950;28;20077;-94
2021/07/12 08:44:01;;;;;;;0.93;0.93;;;42.80;47.80;;;;;;4999929;28;20060;-93
2021/07/12 08:46:28;;;;;;;0.80;0.50;;;41.10;47.60;;;;;;4998147;28;20162;-93
2021/07/12 08:48:56;;;;;;;0.35;0.35;;;39.00;48.30;;;;;;4998046;28;20057;-94
2021/07/12 08:51:25;;;;;;;2.38;0.50;;;38.40;48.50;;;;;;4996777;28;20104;-93
2021/07/12 08:53:52;;;;;;;0.43;0.43;;;38.40;50.30;;;;;;4996697;28;20448;-95
2021/07/12 08:56:19;;;;;;;1.05;1.05;;;38.70;49.90;;;;;;4998661;28;20051;-94
2021/07/12 08:58:46;;;;;;;3.35;1.40;;;40.00;48.70;;;;;;4999630;28;20066;-94
2021/07/12 09:01:15;;;;;;;0.45;0.45;;;42.20;47.10;;;;;;5009896;28;20045;-91
2021/07/12 09:03:46;;;;;;;0.60;0.60;;;41.10;45.90;;;;;;5009745;28;20078;-90
2021/07/12 09:06:32;;;;;;;1.55;0.57;;;41.90;45.80;;;;;;4997163;28;20058;-94
2021/07/12 09:09:04;;;;;;;1.58;0.60;;;41.60;45.90;;;;;;4997232;28;20484;-93
2021/07/12 09:11:43;;;;;;;4.90;0.70;;;42.20;46.00;;;;;;4997300;28;20054;-92
2021/07/12 09:14:12;;;;;;;0.40;0.40;;;41.10;47.00;;;;;;5000267;28;20046;-93
2021/07/12 09:16:59;;;;;;;1.13;0.60;;;41.60;45.50;;;;;;4999703;28;20054;-94
2021/07/12 09:19:35;;;;;;;1.20;1.20;;;42.60;44.70;;;;;;4996629;28;20050;-93
2021/07/12 09:22:12;;;;;;;15.80;2.13;;;40.50;46.00;;;;;;4996932;28;20066;-92
2021/07/12 09:24:45;;;;;;;11.55;1.98;;;38.90;45.30;;;;;;4996568;28;20084;-94
2021/07/12 09:27:15;;;;;;;6.32;0.85;;;37.70;47.40;;;;;;4996178;28;20078;-94
2021/07/12 09:29:45;;;;;;;3.90;1.00;;;38.50;47.60;;;;;;4995459;28;20140;-93
2021/07/12 09:32:14;;;;;;;1.23;0.60;;;39.10;48.80;;;;;;4999207;28;20085;-91
2021/07/12 09:34:41;;;;;;;0.38;0.35;;;39.20;47.30;;;;;;4996090;28;20053;-93
2021/07/12 09:37:12;;;;;;;0.63;0.40;;;39.90;46.40;;;;;;5003621;28;20056;-94
2021/07/12 09:39:48;;;;;;;0.50;0.50;;;40.40;45.40;;;;;;5001818;28;20058;-93
2021/07/12 09:42:23;;;;;;;43.50;4.72;;;40.10;44.90;;;;;;4996700;28;20062;-92
2021/07/12 09:44:56;;;;;;;3.47;0.80;;;38.80;45.40;;;;;;4995914;28;20491;-92
2021/07/12 09:47:25;;;;;;;3.90;0.65;;;39.60;45.60;;;;;;4996402;28;20136;-92
2021/07/12 09:50:18;;;;;;;0.68;0.50;;;39.30;45.60;;;;;;4995660;28;20525;-93
2021/07/12 09:52:48;;;;;;;1.75;0.70;;;41.50;44.20;;;;;;5000249;28;20050;-92
2021/07/12 09:55:24;;;;;;;0.40;0.40;;;42.10;43.50;;;;;;4998357;28;20133;-93
2021/07/12 09:58:14;;;;;;;0.85;0.47;;;42.00;42.40;;;;;;4998580;28;20177;-94
2021/07/12 10:00:51;;;;;;;0.40;0.40;;;42.20;43.00;;;;;;4997009;28;20054;-93
2021/07/12 10:03:20;;;;;;;0.40;0.40;;;42.70;42.90;;;;;;4996714;28;20054;-92
2021/07/12 10:05:48;;;;;;;1.10;0.68;;;44.50;42.20;;;;;;4994393;28;20046;-92
2021/07/12 10:08:16;;;;;;;0.57;0.43;;;44.50;40.20;;;;;;4995337;28;20551;-91
2021/07/12 10:10:43;;;;;;;0.82;0.40;;;44.60;39.80;;;;;;4994891;28;20046;-92
2021/07/12 10:13:10;;;;;;;1.80;0.40;;;42.50;41.10;;;;;;4994156;28;20146;-94
2021/07/12 10:15:38;;;;;;;0.40;0.40;;;40.70;41.80;;;;;;4995529;28;20046;-92
2021/07/12 10:18:06;;;;;;;0.50;0.50;;;39.60;43.20;;;;;;5000278;28;20054;-92
2021/07/12 10:20:35;;;;;;;0.25;0.25;;;36.20;46.40;;;;;;5003701;28;20069;-92
2021/07/12 10:23:05;;;;;;;1.45;0.50;;;34.80;48.10;;;;;;5011933;28;20046;-91
2021/07/12 10:25:36;;;;;;;4.53;0.80;;;34.70;50.60;;;;;;5003568;28;20051;-90
2021/07/12 10:28:07;;;;;;;1.02;0.40;;;34.50;49.00;;;;;;5001876;28;20109;-92
2021/07/12 10:30:44;;;;;;;2.35;0.73;;;34.10;48.60;;;;;;4995795;28;20144;-94
2021/07/12 10:33:12;;;;;;;1.50;0.47;;;34.10;47.40;;;;;;4994062;28;20054;-92
2021/07/12 10:35:46;;;;;;;0.70;0.40;;;33.70;47.80;;;;;;4995205;28;20050;-92
2021/07/12 10:38:16;;;;;;;0.88;0.40;;;33.50;48.40;;;;;;4993776;28;20466;-90
2021/07/12 10:40:54;;;;;;;1.65;0.40;;;34.60;49.90;;;;;;4993671;28;20173;-92
2021/07/12 10:43:32;;;;;;;0.38;0.38;;;35.80;51.00;;;;;;4993763;28;20076;-87
2021/07/12 10:46:00;;;;;;;0.70;0.38;;;37.30;47.80;;;;;;4993184;28;20129;-88
2021/07/12 10:48:39;;;;;;;0.70;0.40;;;38.40;48.40;;;;;;4993504;28;20483;-89
2021/07/12 10:51:27;;;;;;;0.30;0.30;;;38.60;47.50;;;;;;4993353;28;20053;-90
2021/07/12 10:54:10;;;;;;;0.40;0.40;;;39.70;45.10;;;;;;4993896;28;20065;-92
2021/07/12 10:56:56;;;;;;;1.17;0.70;;;40.00;44.60;;;;;;4995193;28;20511;-92
2021/07/12 10:59:30;;;;;;;0.50;0.50;;;38.20;45.10;;;;;;4994990;28;20260;-93
2021/07/12 11:02:00;;;;;;;1.70;0.60;;;38.40;44.90;;;;;;4995054;28;20488;-91
2021/07/12 11:04:51;;;;;;;0.40;0.40;;;38.50;44.80;;;;;;4994946;28;20084;-89
2021/07/12 11:07:38;;;;;;;6.82;1.73;;;36.20;46.20;;;;;;4993543;28;20070;-93
2021/07/12 11:10:18;;;;;;;4.55;1.40;;;36.00;48.60;;;;;;4994557;28;20138;-90
2021/07/12 11:12:50;;;;;;;3.30;0.95;;;37.20;46.50;;;;;;4994670;28;20055;-92
2021/07/12 11:15:23;;;;;;;0.50;0.50;;;36.90;48.20;;;;;;4995425;28;20141;-92
2021/07/12 11:18:02;;;;;;;1.65;0.93;;;37.20;45.50;;;;;;4995593;28;20426;-93
2021/07/12 11:20:43;;;;;;;0.55;0.40;;;36.50;46.90;;;;;;4996790;28;20100;-94
2021/07/12 11:23:48;;;;;;;1.08;0.60;;;34.70;48.60;;;;;;4996777;28;20447;-93
2021/07/12 11:26:23;;;;;;;0.65;0.65;;;33.60;51.70;;;;;;4996214;28;20134;-94
2021/07/12 11:28:59;;;;;;;1.25;0.63;;;33.50;50.40;;;;;;4997280;28;20136;-92
2021/07/12 11:31:43;;;;;;;0.43;0.43;;;33.50;53.60;;;;;;4997259;28;20080;-93
2021/07/12 11:34:19;;;;;;;0.70;0.43;;;33.20;53.30;;;;;;4998454;28;20141;-93
2021/07/12 11:36:58;;;;;;;3.72;0.50;;;33.70;52.30;;;;;;4997552;28;20074;-92
2021/07/12 11:39:41;;;;;;;0.40;0.40;;;33.20;54.90;;;;;;5002550;28;20060;-95
2021/07/12 11:42:20;;;;;;;0.70;0.40;;;33.40;53.60;;;;;;5011301;28;20038;-90
2021/07/12 11:44:51;;;;;;;0.82;0.45;;;33.20;54.80;;;;;;5005574;28;20074;-93
2021/07/12 11:47:32;;;;;;;0.55;0.55;;;33.10;54.00;;;;;;4996895;28;20129;-92
2021/07/12 11:50:07;;;;;;;0.50;0.50;;;32.50;54.00;;;;;;4997179;28;20146;-91
2021/07/12 11:52:35;;;;;;;0.40;0.40;;;32.50;54.00;;;;;;4996489;28;20137;-90
2021/07/12 11:55:09;;;;;;;0.50;0.50;;;32.00;54.70;;;;;;4996712;28;20054;-89
2021/07/12 11:57:43;;;;;;;1.75;0.85;;;31.80;57.10;;;;;;4996203;28;20077;-84
2021/07/12 12:00:13;;;;;;;0.50;0.50;;;31.90;56.40;;;;;;4996203;28;20050;-86
2021/07/12 12:02:40;;;;;;;0.50;0.50;;;31.50;56.00;;;;;;4996410;28;20054;-86
2021/07/12 12:05:11;;;;;;;0.40;0.40;;;31.40;56.80;;;;;;4996091;28;20054;-89
2021/07/12 12:07:45;;;;;;;3.75;0.70;;;31.00;55.60;;;;;;4994904;28;20047;-90
2021/07/12 12:10:43;;;;;;;9.98;2.20;;;30.60;57.40;;;;;;4996614;28;20054;-91
2021/07/12 12:13:14;;;;;;;0.93;0.57;;;30.50;57.80;;;;;;4995001;28;20052;-91
2021/07/12 12:15:43;;;;;;;0.60;0.60;;;29.80;58.90;;;;;;4997372;28;20054;-87
2021/07/12 12:18:15;;;;;;;0.95;0.65;;;28.90;61.40;;;;;;4995871;28;20050;-90
2021/07/12 12:20:46;;;;;;;0.75;0.50;;;28.50;63.90;;;;;;4996013;28;20137;-88
2021/07/12 12:23:19;;;;;;;1.45;0.57;;;28.60;65.20;;;;;;4996224;28;20058;-88
2021/07/12 12:25:54;;;;;;;2.35;0.70;;;28.80;65.80;;;;;;4997311;28;20126;-89
2021/07/12 12:28:40;;;;;;;0.68;0.68;;;29.10;65.70;;;;;;4998223;28;20050;-89
2021/07/12 12:31:29;;;;;;;0.52;0.52;;;29.50;67.50;;;;;;4996753;28;20050;-87
2021/07/12 12:34:06;;;;;;;0.90;0.70;;;29.50;65.50;;;;;;4998168;28;20050;-88
2021/07/12 12:36:34;;;;;;;0.52;0.50;;;29.30;64.00;;;;;;4997863;28;20061;-88
2021/07/12 12:39:04;;;;;;;0.88;0.60;;;28.60;63.30;;;;;;4996910;28;20388;-88
2021/07/12 12:41:33;;;;;;;4.35;0.93;;;28.40;70.00;;;;;;4998221;28;20042;-88
2021/07/12 12:44:09;;;;;;;0.60;0.60;;;28.20;68.20;;;;;;4999137;28;20046;-90
2021/07/12 12:46:51;;;;;;;0.40;0.40;;;28.10;62.30;;;;;;4996474;28;20077;-88
2021/07/12 12:49:31;;;;;;;0.70;0.65;;;27.90;63.50;;;;;;4996794;28;20050;-91
2021/07/12 12:52:00;;;;;;;0.82;0.52;;;28.00;66.40;;;;;;4999866;28;20074;-94
2021/07/12 12:54:50;;;;;;;1.17;0.77;;;28.10;68.40;;;;;;4999938;28;20105;-93
2021/07/12 12:57:27;;;;;;;1.10;0.80;;;27.90;68.20;;;;;;4998033;28;20068;-93
2021/07/12 13:00:06;;;;;;;5.28;1.27;;;27.80;69.10;;;;;;5000841;28;20140;-92
2021/07/12 13:02:38;;;;;;;1.83;0.70;;;27.70;68.10;;;;;;5015198;28;20043;-90
2021/07/12 13:05:14;;;;;;;1.55;0.85;;;27.60;68.40;;;;;;5005045;28;20137;-92
2021/07/12 13:07:50;;;;;;;3.53;0.70;;;27.60;69.10;;;;;;4995571;28;20417;-92
2021/07/12 13:10:22;;;;;;;1.80;0.88;;;27.60;66.40;;;;;;4995760;28;20056;-92
2021/07/12 13:12:51;;;;;;;2.88;0.52;;;27.80;69.40;;;;;;4996645;28;20058;-92
2021/07/12 13:15:20;;;;;;;0.65;0.65;;;28.20;70.60;;;;;;4996295;28;20140;-89
2021/07/12 13:17:52;;;;;;;1.80;0.70;;;28.30;70.40;;;;;;4995265;28;20042;-90
2021/07/12 13:20:26;;;;;;;0.40;0.40;;;28.50;69.90;;;;;;4995549;28;20558;-89
2021/07/12 13:22:54;;;;;;;1.95;0.60;;;28.70;70.40;;;;;;4996618;28;20446;-92
2021/07/12 13:25:28;;;;;;;1.75;0.50;;;28.70;68.30;;;;;;4996932;28;20084;-91
2021/07/12 13:28:05;;;;;;;1.17;0.50;;;28.70;68.80;;;;;;4998543;28;20056;-93
2021/07/12 13:30:46;;;;;;;1.38;0.60;;;28.70;69.60;;;;;;4998712;28;20050;-92
2021/07/12 13:33:17;;;;;;;1.77;0.75;;;28.60;69.60;;;;;;5012008;28;20054;-93
2021/07/12 13:35:46;;;;;;;0.80;0.80;;;28.20;68.50;;;;;;4995526;28;20081;-93
2021/07/12 13:38:18;;;;;;;1.05;0.70;;;27.80;71.10;;;;;;5009514;28;20080;-93
2021/07/12 13:40:47;;;;;;;0.70;0.70;;;27.80;72.20;;;;;;4995042;28;20090;-91
2021/07/12 13:43:15;;;;;;;0.50;0.50;;;27.60;72.80;;;;;;4996056;28;20121;-92
2021/07/12 13:45:45;;;;;;;0.55;0.55;;;27.70;74.10;;;;;;5003595;28;20564;-94
2021/07/12 13:48:22;;;;;;;2.05;0.63;;;27.90;73.10;;;;;;4991400;28;20050;-95
2021/07/12 13:50:53;;;;;;;2.05;1.10;;;27.90;70.30;;;;;;5002728;28;20120;-90
2021/07/12 13:53:23;;;;;;;1.27;0.57;;;27.90;71.90;;;;;;5007429;28;20065;-93
2021/07/12 13:55:50;;;;;;;1.60;0.65;;;27.90;70.00;;;;;;5005154;28;20073;-93
2021/07/12 13:58:22;;;;;;;0.63;0.63;;;27.90;70.70;;;;;;5003850;28;20456;-92
2021/07/12 14:00:49;;;;;;;1.05;0.90;;;27.80;70.40;;;;;;5008090;28;20031;-93
2021/07/12 14:03:17;;;;;;;0.77;0.77;;;27.60;70.20;;;;;;5003658;28;20116;-89